Time,TemperatureF,DewpointF,PressureIn,WindDirection,WindDirectionDegrees,WindSpeedMPH,WindSpeedGustMPH,Humidity,HourlyPrecipIn,Conditions,Clouds,dailyrainin,SolarRadiationWatts/m^2,SoftwareType,DateUTC
2013-10-14 00:01:00,58.0,55.0,-100.00,NE,56,0.0,0.0,89,0.00,,,0.00,0.000000,,2013-10-14 04:01:00,
2013-10-14 00:44:00,58.0,55.0,-100.00,NE,56,0.0,0.0,89,0.00,,,0.00,0.000000,,2013-10-14 04:44:00,
2013-10-14 00:54:00,58.0,55.0,-100.00,NE,56,0.0,0.0,89,0.00,,,0.00,0.000000,,2013-10-14 04:54:00,
2013-10-14 01:01:00,57.0,56.0,-100.00,NE,55,0.0,1.0,95,0.00,,,0.00,0.000000,,2013-10-14 05:01:00,
2013-10-14 01:43:00,57.0,56.0,-100.00,NE,55,0.0,1.0,95,0.00,,,0.00,0.000000,,2013-10-14 05:43:00,
2013-10-14 01:52:00,57.0,56.0,-100.00,NE,55,0.0,1.0,95,0.00,,,0.00,0.000000,,2013-10-14 05:52:00,
2013-10-14 02:01:00,57.0,56.0,-100.00,NE,55,0.0,0.0,97,0.00,,,0.00,0.000000,,2013-10-14 06:01:00,
2013-10-14 02:42:00,57.0,56.0,-100.00,NE,55,0.0,0.0,97,0.00,,,0.00,0.000000,,2013-10-14 06:42:00,
2013-10-14 02:52:00,57.0,56.0,-100.00,NE,55,0.0,0.0,97,0.00,,,0.00,0.000000,,2013-10-14 06:52:00,
2013-10-14 03:01:00,58.0,57.0,-100.00,East,101,0.0,3.0,97,0.03,,,0.03,0.000000,,2013-10-14 07:01:00,
2013-10-14 03:42:00,58.0,57.0,-100.00,East,101,0.0,3.0,97,0.03,,,0.03,0.000000,,2013-10-14 07:42:00,
2013-10-14 03:52:00,58.0,57.0,-100.00,East,101,0.0,3.0,97,0.03,,,0.03,0.000000,,2013-10-14 07:52:00,
2013-10-14 04:01:00,57.0,56.0,-100.00,East,101,0.0,0.0,98,0.02,,,0.05,0.000000,,2013-10-14 08:01:00,
2013-10-14 04:42:00,57.0,56.0,-100.00,East,101,0.0,0.0,98,0.02,,,0.05,0.000000,,2013-10-14 08:42:00,
2013-10-14 04:52:00,57.0,56.0,-100.00,East,101,0.0,0.0,98,0.02,,,0.05,0.000000,,2013-10-14 08:52:00,
2013-10-14 05:01:00,57.0,56.0,-100.00,ESE,120,0.0,0.0,98,0.00,,,0.05,0.000000,,2013-10-14 09:01:00,
2013-10-14 05:43:00,57.0,56.0,-100.00,ESE,120,0.0,0.0,98,0.00,,,0.05,0.000000,,2013-10-14 09:43:00,
2013-10-14 05:53:00,57.0,56.0,-100.00,ESE,120,0.0,0.0,98,0.00,,,0.05,0.000000,,2013-10-14 09:53:00,
2013-10-14 06:01:00,57.0,56.0,-100.00,SW,233,1.0,6.0,98,0.06,,,0.11,0.000000,,2013-10-14 10:01:00,
2013-10-14 06:42:00,57.0,56.0,-100.00,SW,233,1.0,6.0,98,0.06,,,0.11,0.000000,,2013-10-14 10:42:00,
2013-10-14 06:53:00,57.0,56.0,-100.00,SW,233,1.0,6.0,98,0.06,,,0.11,0.000000,,2013-10-14 10:53:00,
2013-10-14 07:01:00,56.0,55.0,-100.00,SW,227,1.0,4.0,98,0.03,,,0.14,0.000000,,2013-10-14 11:01:00,
2013-10-14 07:42:00,56.0,55.0,-100.00,SW,227,1.0,4.0,98,0.03,,,0.14,0.000000,,2013-10-14 11:42:00,
2013-10-14 07:52:00,56.0,55.0,-100.00,SW,227,1.0,4.0,98,0.03,,,0.14,0.000000,,2013-10-14 11:52:00,
2013-10-14 08:01:00,56.0,55.0,-100.00,WSW,241,0.0,6.0,97,0.00,,,0.14,2.000000,,2013-10-14 12:01:00,
2013-10-14 08:42:00,56.0,55.0,-100.00,WSW,241,0.0,6.0,97,0.00,,,0.14,2.000000,,2013-10-14 12:42:00,
2013-10-14 08:52:00,56.0,55.0,-100.00,WSW,241,0.0,6.0,97,0.00,,,0.14,2.000000,,2013-10-14 12:52:00,
2013-10-14 09:01:00,57.0,56.0,-100.00,WNW,293,1.0,5.0,97,0.00,,,-99.99,18.000000,,2013-10-14 13:01:00,
2013-10-14 09:42:00,57.0,56.0,-100.00,WNW,293,1.0,5.0,97,0.00,,,-99.99,18.000000,,2013-10-14 13:42:00,
2013-10-14 09:52:00,57.0,56.0,-100.00,WNW,293,1.0,5.0,97,0.00,,,-99.99,18.000000,,2013-10-14 13:52:00,
2013-10-14 10:01:00,58.0,56.0,-100.00,WSW,249,1.0,7.0,94,0.00,,,0.14,60.000000,,2013-10-14 14:01:00,
2013-10-14 10:22:00,58.0,56.0,-100.00,WSW,249,1.0,7.0,94,0.00,,,0.14,60.000000,,2013-10-14 14:22:00,
2013-10-14 10:32:00,58.0,56.0,-100.00,WSW,249,1.0,7.0,94,0.00,,,0.14,60.000000,,2013-10-14 14:32:00,
2013-10-14 10:42:00,58.0,56.0,-100.00,WSW,249,1.0,7.0,94,0.00,,,0.14,60.000000,,2013-10-14 14:42:00,
2013-10-14 10:52:00,58.0,56.0,-100.00,WSW,249,1.0,7.0,94,0.00,,,0.14,60.000000,,2013-10-14 14:52:00,
2013-10-14 11:01:00,58.0,55.0,-100.00,SW,227,2.0,8.0,91,0.00,,,0.14,67.000000,,2013-10-14 15:01:00,
2013-10-14 11:22:00,58.0,55.0,-100.00,SW,227,2.0,8.0,91,0.00,,,0.14,67.000000,,2013-10-14 15:22:00,
2013-10-14 11:33:00,58.0,55.0,-100.00,SW,227,2.0,8.0,91,0.00,,,0.14,67.000000,,2013-10-14 15:33:00,
2013-10-14 11:44:00,58.0,55.0,-100.00,SW,227,2.0,8.0,91,0.00,,,0.14,67.000000,,2013-10-14 15:44:00,
2013-10-14 11:54:00,58.0,55.0,-100.00,SW,227,2.0,8.0,91,0.00,,,0.14,67.000000,,2013-10-14 15:54:00,
2013-10-14 12:01:00,59.0,56.0,-100.00,WSW,239,1.0,7.0,91,0.00,,,0.14,74.000000,,2013-10-14 16:01:00,
2013-10-14 12:43:00,59.0,56.0,-100.00,WSW,239,1.0,7.0,91,0.00,,,0.14,74.000000,,2013-10-14 16:43:00,
2013-10-14 12:53:00,59.0,56.0,-100.00,WSW,239,1.0,7.0,91,0.00,,,0.14,74.000000,,2013-10-14 16:53:00,
2013-10-14 13:01:00,58.0,57.0,-100.00,WSW,252,1.0,6.0,95,0.00,,,0.14,80.000000,,2013-10-14 17:01:00,
2013-10-14 13:42:00,58.0,57.0,-100.00,WSW,252,1.0,6.0,95,0.00,,,0.14,80.000000,,2013-10-14 17:42:00,
2013-10-14 13:52:00,58.0,57.0,-100.00,WSW,252,1.0,6.0,95,0.00,,,0.14,80.000000,,2013-10-14 17:52:00,
2013-10-14 14:01:00,60.0,57.0,-100.00,WSW,247,1.0,5.0,91,0.00,,,0.14,127.000000,,2013-10-14 18:01:00,
2013-10-14 14:43:00,60.0,57.0,-100.00,WSW,247,1.0,5.0,91,0.00,,,0.14,127.000000,,2013-10-14 18:43:00,
2013-10-14 14:52:00,60.0,57.0,-100.00,WSW,247,1.0,5.0,91,0.00,,,0.14,127.000000,,2013-10-14 18:52:00,
2013-10-14 15:01:00,65.0,57.0,-100.00,SSW,195,2.0,8.0,75,0.00,,,0.14,358.000000,,2013-10-14 19:01:00,
2013-10-14 15:42:00,65.0,57.0,-100.00,SSW,195,2.0,8.0,75,0.00,,,0.14,358.000000,,2013-10-14 19:42:00,
2013-10-14 15:52:00,65.0,57.0,-100.00,SSW,195,2.0,8.0,75,0.00,,,0.14,358.000000,,2013-10-14 19:52:00,
2013-10-14 16:01:00,65.0,55.0,-100.00,South,186,2.0,7.0,71,0.00,,,0.14,329.000000,,2013-10-14 20:01:00,
2013-10-14 16:22:00,65.0,55.0,-100.00,South,186,2.0,7.0,71,0.00,,,0.14,329.000000,,2013-10-14 20:22:00,
2013-10-14 16:32:00,65.0,55.0,-100.00,South,186,2.0,7.0,71,0.00,,,0.14,329.000000,,2013-10-14 20:32:00,
2013-10-14 16:43:00,65.0,55.0,-100.00,South,186,2.0,7.0,71,0.00,,,0.14,329.000000,,2013-10-14 20:43:00,
2013-10-14 16:52:00,65.0,55.0,-100.00,South,186,2.0,7.0,71,0.00,,,0.14,329.000000,,2013-10-14 20:52:00,
2013-10-14 17:01:00,64.0,56.0,-100.00,SW,221,1.0,7.0,74,0.00,,,0.14,104.000000,,2013-10-14 21:01:00,
2013-10-14 17:22:00,64.0,56.0,-100.00,SW,221,1.0,7.0,74,0.00,,,0.14,104.000000,,2013-10-14 21:22:00,
2013-10-14 17:34:00,64.0,56.0,-100.00,SW,221,1.0,7.0,74,0.00,,,0.14,104.000000,,2013-10-14 21:34:00,
2013-10-14 17:44:00,64.0,56.0,-100.00,SW,221,1.0,7.0,74,0.00,,,0.14,104.000000,,2013-10-14 21:44:00,
2013-10-14 17:55:00,64.0,56.0,-100.00,SW,221,1.0,7.0,74,0.00,,,0.14,104.000000,,2013-10-14 21:55:00,
2013-10-14 18:01:00,59.0,57.0,-100.00,NNE,28,0.0,2.0,92,0.00,,,0.14,33.000000,,2013-10-14 22:01:00,
2013-10-14 18:44:00,59.0,57.0,-100.00,NNE,28,0.0,2.0,92,0.00,,,0.14,33.000000,,2013-10-14 22:44:00,
2013-10-14 18:54:00,59.0,57.0,-100.00,NNE,28,0.0,2.0,92,0.00,,,0.14,33.000000,,2013-10-14 22:54:00,
2013-10-14 19:01:00,55.0,54.0,-100.00,North,0,0.0,1.0,96,0.00,,,0.14,3.000000,,2013-10-14 23:01:00,
2013-10-14 19:42:00,55.0,54.0,-100.00,North,0,0.0,1.0,96,0.00,,,0.14,3.000000,,2013-10-14 23:42:00,
2013-10-14 19:53:00,55.0,54.0,-100.00,North,0,0.0,1.0,96,0.00,,,0.14,3.000000,,2013-10-14 23:53:00,
2013-10-14 20:01:00,52.0,51.0,-100.00,ENE,63,0.0,2.0,97,0.00,,,0.14,0.000000,,2013-10-15 00:01:00,
2013-10-14 20:22:00,52.0,51.0,-100.00,ENE,63,0.0,2.0,97,0.00,,,0.14,0.000000,,2013-10-15 00:22:00,
2013-10-14 20:32:00,52.0,51.0,-100.00,ENE,63,0.0,2.0,97,0.00,,,0.14,0.000000,,2013-10-15 00:32:00,
2013-10-14 20:43:00,52.0,51.0,-100.00,ENE,63,0.0,2.0,97,0.00,,,0.14,0.000000,,2013-10-15 00:43:00,
2013-10-14 20:52:00,52.0,51.0,-100.00,ENE,63,0.0,2.0,97,0.00,,,0.14,0.000000,,2013-10-15 00:52:00,
2013-10-14 21:01:00,49.0,48.0,-100.00,SE,129,0.0,0.0,97,0.00,,,0.14,0.000000,,2013-10-15 01:01:00,
2013-10-14 21:42:00,49.0,48.0,-100.00,SE,129,0.0,0.0,97,0.00,,,0.14,0.000000,,2013-10-15 01:42:00,
2013-10-14 21:52:00,49.0,48.0,-100.00,SE,129,0.0,0.0,97,0.00,,,0.14,0.000000,,2013-10-15 01:52:00,
2013-10-14 22:01:00,47.0,46.0,-100.00,South,176,0.0,0.0,97,0.00,,,0.14,0.000000,,2013-10-15 02:01:00,
2013-10-14 22:42:00,47.0,46.0,-100.00,South,176,0.0,0.0,97,0.00,,,0.14,0.000000,,2013-10-15 02:42:00,
2013-10-14 22:52:00,47.0,46.0,-100.00,South,176,0.0,0.0,97,0.00,,,0.14,0.000000,,2013-10-15 02:52:00,
2013-10-14 23:01:00,47.0,46.0,-100.00,ESE,123,0.0,0.0,98,0.00,,,0.14,0.000000,,2013-10-15 03:01:00,
2013-10-14 23:44:00,47.0,46.0,-100.00,ESE,123,0.0,0.0,98,0.00,,,0.14,0.000000,,2013-10-15 03:44:00,
2013-10-14 23:55:00,47.0,46.0,-100.00,ESE,123,0.0,0.0,98,0.00,,,0.14,0.000000,,2013-10-15 03:55:00,